createdAt,value
2019-02-18T06:09:29.682Z,45.70
2019-02-18T06:11:54.338Z,43.40
2019-02-18T06:14:23.459Z,44.00
2019-02-18T06:16:52.717Z,44.10
2019-02-18T06:19:21.733Z,44.10
2019-02-18T06:21:51.241Z,44.30
2019-02-18T06:24:20.862Z,44.30
2019-02-18T06:26:49.971Z,44.20
2019-02-18T06:29:19.659Z,44.70
2019-02-18T06:31:48.751Z,44.50
2019-02-18T06:34:17.436Z,44.80
2019-02-18T06:36:46.130Z,44.80
2019-02-18T06:39:15.638Z,45.00
2019-02-18T06:41:44.807Z,45.10
2019-02-18T06:44:14.243Z,45.50
2019-02-18T06:46:48.560Z,45.50
2019-02-18T06:49:19.954Z,45.90
2019-02-18T06:51:49.044Z,45.80
2019-02-18T06:54:18.177Z,45.40
2019-02-18T06:56:52.908Z,45.50
2019-02-18T06:59:26.460Z,45.20
2019-02-18T07:02:03.698Z,43.20
2019-02-18T07:04:38.623Z,44.30
2019-02-18T07:07:17.218Z,44.40
2019-02-18T07:09:51.548Z,44.40
2019-02-18T07:12:27.695Z,44.40
2019-02-18T07:14:57.092Z,44.20
2019-02-18T07:17:26.697Z,44.10
2019-02-18T07:19:57.108Z,44.10
2019-02-18T07:22:26.224Z,44.00
2019-02-18T07:24:55.623Z,43.90
2019-02-18T07:27:24.567Z,43.80
2019-02-18T07:29:54.375Z,43.80
2019-02-18T07:32:23.172Z,43.80
2019-02-18T07:34:51.887Z,43.70
2019-02-18T07:37:21.422Z,44.00
2019-02-18T07:40:00.782Z,43.80
2019-02-18T07:42:20.393Z,43.80
2019-02-18T07:44:49.692Z,43.70
2019-02-18T07:47:18.798Z,43.70
2019-02-18T07:49:48.491Z,43.60
2019-02-18T07:52:17.584Z,43.50
2019-02-18T07:54:46.864Z,43.40
2019-02-18T07:57:16.280Z,43.70
2019-02-18T07:59:45.879Z,43.40
2019-02-18T08:02:14.647Z,43.30
2019-02-18T08:04:44.109Z,43.30
2019-02-18T08:07:13.676Z,43.10
2019-02-18T08:09:43.669Z,43.00
2019-02-18T08:12:13.066Z,42.90
2019-02-18T08:14:42.560Z,43.10
2019-02-18T08:17:11.691Z,43.10
2019-02-18T08:19:41.092Z,43.10
2019-02-18T08:22:11.320Z,44.10
2019-02-18T08:24:40.404Z,44.50
2019-02-18T08:27:09.515Z,43.90
2019-02-18T08:29:39.313Z,43.80
2019-02-18T08:32:08.161Z,43.70
2019-02-18T08:34:37.516Z,44.20
2019-02-18T08:37:07.574Z,43.40
2019-02-18T08:39:37.077Z,43.10
2019-02-18T08:42:05.779Z,43.00
2019-02-18T08:44:36.841Z,43.00
2019-02-18T08:47:07.542Z,42.90
2019-02-18T08:49:36.643Z,43.10
2019-02-18T08:52:06.056Z,42.70
2019-02-18T08:54:35.619Z,43.00
2019-02-18T08:57:04.887Z,43.00
2019-02-18T08:59:34.256Z,42.70
2019-02-18T09:02:03.416Z,43.60
2019-02-18T09:04:33.816Z,43.50
2019-02-18T09:07:03.794Z,42.80
2019-02-18T09:09:32.810Z,42.50
2019-02-18T09:12:01.940Z,42.40
2019-02-18T09:14:31.549Z,42.70
2019-02-18T09:17:00.707Z,42.50
2019-02-18T09:19:30.336Z,43.10
2019-02-18T09:22:08.611Z,42.70
2019-02-18T09:24:46.811Z,42.70
2019-02-18T09:27:16.524Z,42.70
2019-02-18T09:29:45.943Z,42.50
2019-02-18T09:32:15.119Z,43.40
2019-02-18T09:34:44.333Z,42.30
2019-02-18T09:37:13.379Z,42.60
2019-02-18T09:39:42.484Z,42.40
2019-02-18T09:42:11.983Z,42.20
2019-02-18T09:44:42.915Z,42.60
2019-02-18T09:47:12.451Z,42.40
2019-02-18T09:49:41.924Z,42.30
2019-02-18T09:52:11.486Z,42.30
2019-02-18T09:54:40.499Z,42.50
2019-02-18T09:57:10.096Z,42.20
2019-02-18T09:59:39.738Z,42.60
2019-02-18T10:02:08.804Z,42.30
2019-02-18T10:04:37.779Z,42.30
2019-02-18T10:07:07.341Z,42.40
2019-02-18T10:09:37.881Z,42.50
2019-02-18T10:12:17.780Z,42.20
2019-02-18T10:14:36.787Z,42.30
2019-02-18T10:17:06.851Z,42.40
2019-02-18T10:19:36.553Z,42.40
2019-02-18T10:22:05.287Z,42.30
2019-02-18T10:24:34.296Z,42.20
2019-02-18T10:27:03.807Z,42.30
2019-02-18T10:29:33.031Z,42.40
2019-02-18T10:32:02.533Z,42.30
2019-02-18T10:34:31.544Z,42.30
2019-02-18T10:37:01.153Z,42.40
2019-02-18T10:39:30.925Z,43.50
2019-02-18T10:42:00.134Z,42.50
2019-02-18T10:44:29.629Z,42.60
2019-02-18T10:46:58.884Z,42.40
2019-02-18T10:49:31.026Z,42.60
2019-02-18T10:52:00.899Z,42.40
2019-02-18T10:54:29.992Z,42.70
2019-02-18T10:56:59.162Z,42.60
2019-02-18T10:59:28.970Z,42.70
2019-02-18T11:01:58.112Z,42.80
2019-02-18T11:04:27.127Z,42.90
2019-02-18T11:06:56.393Z,43.00
2019-02-18T11:09:26.039Z,42.90
2019-02-18T11:11:55.280Z,42.80
2019-02-18T11:14:24.707Z,42.80
2019-02-18T11:16:53.824Z,43.00
2019-02-18T11:19:23.075Z,42.90
2019-02-18T11:21:51.780Z,43.50
2019-02-18T11:24:21.003Z,43.10
2019-02-18T11:26:50.119Z,43.10
2019-02-18T11:29:20.339Z,43.10
2019-02-18T11:31:49.581Z,43.10
2019-02-18T11:34:18.984Z,43.20
2019-02-18T11:36:48.061Z,43.20
2019-02-18T11:39:17.548Z,42.90
2019-02-18T11:41:47.375Z,43.20
2019-02-18T11:44:16.560Z,43.20
2019-02-18T11:46:45.672Z,43.30
2019-02-18T11:49:15.377Z,43.30
2019-02-18T11:51:44.209Z,43.30
2019-02-18T11:54:13.616Z,43.30
2019-02-18T11:56:43.020Z,43.40
2019-02-18T11:59:12.912Z,44.10
2019-02-18T12:01:43.169Z,43.40
2019-02-18T12:04:12.276Z,43.50
2019-02-18T12:06:41.753Z,43.40
2019-02-18T12:09:10.755Z,43.50
2019-02-18T12:11:39.853Z,43.50
2019-02-18T12:14:09.074Z,43.50
2019-02-18T12:16:37.968Z,43.60
2019-02-18T12:19:07.480Z,43.60
2019-02-18T12:21:36.980Z,43.70
2019-02-18T12:24:05.698Z,43.70
2019-02-18T12:26:35.212Z,43.70
2019-02-18T12:29:04.380Z,43.80
2019-02-18T12:31:33.655Z,43.80
2019-02-18T12:34:03.191Z,43.80
2019-02-18T12:36:32.679Z,43.90
2019-02-18T12:39:02.793Z,43.90
2019-02-18T12:41:32.351Z,43.90
2019-02-18T12:44:01.473Z,43.90
2019-02-18T12:46:31.032Z,44.10
2019-02-18T12:49:00.141Z,44.00
2019-02-18T12:51:30.719Z,44.10
2019-02-18T12:56:35.916Z,44.20
2019-02-18T12:59:05.383Z,44.20
2019-02-18T13:01:34.920Z,44.20
2019-02-18T13:04:04.328Z,44.20
2019-02-18T13:06:33.528Z,44.20
2019-02-18T13:09:02.407Z,44.90
2019-02-18T13:14:00.544Z,44.30
2019-02-18T13:18:59.013Z,44.30
2019-02-18T13:21:29.163Z,44.30
2019-02-18T13:23:58.945Z,44.40
2019-02-18T13:26:28.240Z,44.40
2019-02-18T13:28:58.635Z,44.40
2019-02-18T13:31:27.699Z,44.40
2019-02-18T13:33:57.212Z,44.80
2019-02-18T13:36:26.335Z,44.40
2019-02-18T13:38:56.708Z,44.40
2019-02-18T13:41:26.051Z,44.40
2019-02-18T13:43:55.533Z,44.40
2019-02-18T13:46:25.265Z,44.50
2019-02-18T13:48:54.925Z,44.40
2019-02-18T13:51:24.614Z,44.40
2019-02-18T13:53:53.887Z,44.40
2019-02-18T13:56:23.132Z,44.60
2019-02-18T13:58:52.260Z,44.50
2019-02-18T14:01:21.711Z,44.60
2019-02-18T14:03:50.431Z,44.70
2019-02-18T14:06:19.412Z,44.50
2019-02-18T14:08:48.840Z,44.60
2019-02-18T14:11:18.000Z,44.50
2019-02-18T14:13:47.132Z,45.20
2019-02-18T14:16:16.225Z,44.60
2019-02-18T14:18:45.032Z,44.70
2019-02-18T14:21:14.508Z,44.70
2019-02-18T14:23:43.736Z,44.70
2019-02-18T14:26:13.269Z,44.70
2019-02-18T14:28:42.721Z,44.60
2019-02-18T14:31:12.452Z,44.60
2019-02-18T14:33:41.252Z,44.70
2019-02-18T14:36:12.571Z,44.60
2019-02-18T14:38:42.258Z,44.60
2019-02-18T14:41:11.061Z,44.80
2019-02-18T14:43:40.649Z,44.90
2019-02-18T14:46:10.332Z,44.90
2019-02-18T14:48:39.347Z,44.80
2019-02-18T14:51:08.493Z,44.70
2019-02-18T14:56:06.456Z,44.90
2019-02-18T15:01:04.445Z,44.80
2019-02-18T15:03:33.131Z,44.80
2019-02-18T15:06:02.640Z,45.00
2019-02-18T15:11:00.342Z,44.70
2019-02-18T15:13:29.205Z,44.80
2019-02-18T15:15:58.841Z,44.90
2019-02-18T15:18:28.425Z,44.80
2019-02-18T15:20:57.547Z,44.90
2019-02-18T15:23:27.216Z,45.00
2019-02-18T15:25:56.279Z,44.90
2019-02-18T15:28:25.810Z,44.70
2019-02-18T15:30:55.499Z,44.60
2019-02-18T15:33:24.919Z,44.50
2019-02-18T15:35:55.834Z,44.50
2019-02-18T15:38:23.112Z,44.70
2019-02-18T15:40:53.251Z,44.50
2019-02-18T15:43:22.637Z,44.50
2019-02-18T15:45:52.100Z,44.50
2019-02-18T15:48:21.273Z,44.50
2019-02-18T15:50:50.729Z,44.40
2019-02-18T15:53:20.253Z,44.40
2019-02-18T15:55:49.393Z,44.40
2019-02-18T15:58:18.517Z,44.50
2019-02-18T16:00:47.681Z,44.40
2019-02-18T16:03:17.534Z,45.10
2019-02-18T16:05:46.440Z,44.40
2019-02-18T16:08:15.205Z,44.40
2019-02-18T16:10:45.031Z,44.30
2019-02-18T16:13:14.523Z,44.20
2019-02-18T16:15:44.108Z,44.10
2019-02-18T16:18:13.375Z,44.10
2019-02-18T16:20:42.828Z,44.20
2019-02-18T16:23:11.688Z,44.10
2019-02-18T16:25:40.712Z,44.10
2019-02-18T16:30:39.059Z,44.00
2019-02-18T16:33:08.303Z,44.10
2019-02-18T16:35:37.762Z,44.10
2019-02-18T16:38:07.583Z,44.10
2019-02-18T16:40:36.606Z,44.10
2019-02-18T16:43:05.848Z,44.10
2019-02-18T16:45:35.251Z,44.10
2019-02-18T16:48:04.404Z,43.90
2019-02-18T16:50:33.311Z,44.00
2019-02-18T16:53:02.702Z,44.10
2019-02-18T16:55:31.984Z,44.90
2019-02-18T16:58:01.190Z,44.30
2019-02-18T17:00:32.764Z,44.40
2019-02-18T17:03:02.145Z,44.50
2019-02-18T17:05:31.436Z,44.40
2019-02-18T17:08:00.533Z,44.50
2019-02-18T17:10:29.711Z,44.60
2019-02-18T17:13:07.685Z,44.50
2019-02-18T17:15:28.733Z,45.20
2019-02-18T17:17:57.907Z,44.50
2019-02-18T17:20:27.395Z,44.50
2019-02-18T17:22:56.433Z,44.40
2019-02-18T17:25:25.626Z,44.50
2019-02-18T17:27:54.789Z,44.30
2019-02-18T17:30:23.522Z,44.40
2019-02-18T17:32:52.699Z,44.40
2019-02-18T17:35:22.177Z,44.30
2019-02-18T17:37:51.727Z,44.40
2019-02-18T17:40:20.864Z,44.30
2019-02-18T17:42:53.381Z,44.30
2019-02-18T17:45:23.637Z,44.30
2019-02-18T17:47:53.099Z,44.30
2019-02-18T17:50:22.549Z,44.30
2019-02-18T17:52:52.868Z,44.30
2019-02-18T17:55:23.164Z,44.30
2019-02-18T17:57:52.034Z,44.20
2019-02-18T18:00:22.262Z,44.20
2019-02-18T18:02:53.313Z,44.20
2019-02-18T18:07:51.123Z,44.30
2019-02-18T18:10:21.492Z,44.20
2019-02-18T18:12:51.517Z,44.20
2019-02-18T18:15:20.455Z,44.20
2019-02-18T18:17:49.548Z,44.20
2019-02-18T18:20:20.129Z,44.20
2019-02-18T18:22:49.438Z,44.20
2019-02-18T18:27:48.614Z,44.10
2019-02-18T18:30:17.473Z,44.20
2019-02-18T18:32:46.523Z,44.20
2019-02-18T18:35:15.872Z,44.20
2019-02-18T18:37:44.848Z,44.20
2019-02-18T18:40:13.960Z,44.20
2019-02-18T18:42:43.547Z,44.20
2019-02-18T18:45:13.169Z,44.20
2019-02-18T18:47:42.235Z,44.20
2019-02-18T18:50:14.087Z,44.10
2019-02-18T18:52:43.272Z,44.10
2019-02-18T18:55:12.271Z,44.10
2019-02-18T18:57:41.748Z,44.10
2019-02-18T19:00:13.593Z,44.20
2019-02-18T19:02:42.595Z,44.20
2019-02-18T19:05:11.729Z,44.10
2019-02-18T19:07:40.871Z,44.20
2019-02-18T19:10:11.397Z,44.10
2019-02-18T19:12:40.234Z,44.00
2019-02-18T19:17:38.927Z,44.10
2019-02-18T19:20:08.704Z,44.10
2019-02-18T19:22:37.875Z,44.10
2019-02-18T19:25:07.139Z,44.10
2019-02-18T19:30:05.890Z,43.20
2019-02-18T19:32:35.333Z,43.40
2019-02-18T19:35:05.344Z,44.30
2019-02-18T19:37:35.586Z,44.30
2019-02-18T19:40:06.068Z,44.20
2019-02-18T19:42:35.568Z,44.30
2019-02-18T19:45:05.088Z,44.40
2019-02-18T19:47:34.092Z,44.40
2019-02-18T19:50:03.628Z,44.30
2019-02-18T19:52:33.823Z,44.30
2019-02-18T19:55:03.010Z,44.20
2019-02-18T20:00:01.359Z,44.20
2019-02-18T20:02:30.471Z,44.20
2019-02-18T20:04:59.564Z,44.30
2019-02-18T20:07:29.182Z,44.30
2019-02-18T20:09:58.247Z,44.30
2019-02-18T20:12:27.240Z,44.50
2019-02-18T20:14:56.676Z,44.50
2019-02-18T20:17:26.365Z,44.60
2019-02-18T20:19:56.120Z,44.80
2019-02-18T20:22:26.011Z,44.40
2019-02-18T20:24:55.666Z,44.50
2019-02-18T20:29:53.116Z,44.30
2019-02-18T20:32:22.620Z,44.30
2019-02-18T20:34:51.688Z,44.40
2019-02-18T20:37:20.760Z,44.40
2019-02-18T20:39:50.244Z,44.40
2019-02-18T20:42:19.767Z,44.30
2019-02-18T20:44:48.802Z,44.60
2019-02-18T20:47:18.229Z,44.70
2019-02-18T20:49:47.375Z,44.50
2019-02-18T20:52:17.402Z,44.70
2019-02-18T20:54:46.146Z,44.80
2019-02-18T20:57:15.279Z,44.90
2019-02-18T20:59:44.805Z,45.00
2019-02-18T21:02:14.385Z,44.80
2019-02-18T21:04:44.120Z,44.60
2019-02-18T21:07:13.555Z,44.60
2019-02-18T21:09:42.563Z,44.50
2019-02-18T21:12:19.645Z,44.80
2019-02-18T21:14:42.089Z,44.90
2019-02-18T21:17:11.692Z,44.80
2019-02-18T21:19:40.713Z,44.80
2019-02-18T21:22:10.193Z,44.80
2019-02-18T21:24:39.706Z,45.50
2019-02-18T21:27:09.079Z,44.70
2019-02-18T21:29:38.500Z,45.20
2019-02-18T21:32:07.974Z,44.60
2019-02-18T21:34:38.504Z,44.50
2019-02-18T21:37:07.596Z,44.70
2019-02-18T21:39:37.431Z,44.40
2019-02-18T21:42:06.857Z,44.30
2019-02-18T21:44:37.372Z,44.30
2019-02-18T21:47:05.484Z,44.40
2019-02-18T21:49:34.293Z,44.30
2019-02-18T21:52:05.011Z,44.20
2019-02-18T21:54:35.000Z,44.20
